sensor_id;sensor_type;location;lat;lon;timestamp;P1;durP1;ratioP1;P2;durP2;ratioP2
32639;SDS011;19049;52.524;11.468;2022-12-18T00:00:44;28.50;;;11.27;;
32639;SDS011;19049;52.524;11.468;2022-12-18T00:03:12;22.85;;;8.95;;
32639;SDS011;19049;52.524;11.468;2022-12-18T00:05:45;24.95;;;9.85;;
32639;SDS011;19049;52.524;11.468;2022-12-18T00:08:15;21.60;;;9.65;;
32639;SDS011;19049;52.524;11.468;2022-12-18T00:10:41;24.15;;;10.27;;
32639;SDS011;19049;52.524;11.468;2022-12-18T00:13:06;20.83;;;8.80;;
32639;SDS011;19049;52.524;11.468;2022-12-18T00:15:36;19.23;;;8.40;;
32639;SDS011;19049;52.524;11.468;2022-12-18T00:18:03;22.10;;;9.13;;
32639;SDS011;19049;52.524;11.468;2022-12-18T00:20:29;20.30;;;8.97;;
32639;SDS011;19049;52.524;11.468;2022-12-18T00:22:55;21.95;;;8.50;;
32639;SDS011;19049;52.524;11.468;2022-12-18T00:25:20;22.60;;;9.77;;
32639;SDS011;19049;52.524;11.468;2022-12-18T00:27:46;20.33;;;9.50;;
32639;SDS011;19049;52.524;11.468;2022-12-18T00:30:12;19.63;;;8.48;;
32639;SDS011;19049;52.524;11.468;2022-12-18T00:32:38;19.70;;;7.63;;
32639;SDS011;19049;52.524;11.468;2022-12-18T00:35:04;16.80;;;7.07;;
32639;SDS011;19049;52.524;11.468;2022-12-18T00:37:31;18.50;;;7.28;;
32639;SDS011;19049;52.524;11.468;2022-12-18T00:39:58;16.05;;;7.13;;
32639;SDS011;19049;52.524;11.468;2022-12-18T00:42:24;18.57;;;8.17;;
32639;SDS011;19049;52.524;11.468;2022-12-18T00:45:08;17.42;;;6.78;;
32639;SDS011;19049;52.524;11.468;2022-12-18T00:47:33;18.50;;;8.07;;
32639;SDS011;19049;52.524;11.468;2022-12-18T00:49:59;19.33;;;8.47;;
32639;SDS011;19049;52.524;11.468;2022-12-18T00:52:25;22.37;;;9.23;;
32639;SDS011;19049;52.524;11.468;2022-12-18T00:54:50;17.20;;;6.70;;
32639;SDS011;19049;52.524;11.468;2022-12-18T00:57:16;16.27;;;7.73;;
32639;SDS011;19049;52.524;11.468;2022-12-18T00:59:41;14.17;;;6.70;;
32639;SDS011;19049;52.524;11.468;2022-12-18T01:02:07;13.70;;;6.53;;
32639;SDS011;19049;52.524;11.468;2022-12-18T01:04:33;14.97;;;7.20;;
32639;SDS011;19049;52.524;11.468;2022-12-18T01:06:59;16.38;;;7.13;;
32639;SDS011;19049;52.524;11.468;2022-12-18T01:09:25;18.17;;;8.00;;
32639;SDS011;19049;52.524;11.468;2022-12-18T01:11:51;15.30;;;6.80;;
32639;SDS011;19049;52.524;11.468;2022-12-18T01:14:16;16.37;;;7.17;;
32639;SDS011;19049;52.524;11.468;2022-12-18T01:16:42;20.43;;;8.13;;
32639;SDS011;19049;52.524;11.468;2022-12-18T01:19:11;16.95;;;7.10;;
32639;SDS011;19049;52.524;11.468;2022-12-18T01:21:37;19.07;;;7.93;;
32639;SDS011;19049;52.524;11.468;2022-12-18T01:24:04;15.30;;;6.80;;
32639;SDS011;19049;52.524;11.468;2022-12-18T01:26:30;14.50;;;6.50;;
32639;SDS011;19049;52.524;11.468;2022-12-18T01:28:56;15.60;;;5.73;;
32639;SDS011;19049;52.524;11.468;2022-12-18T01:31:23;14.90;;;5.85;;
32639;SDS011;19049;52.524;11.468;2022-12-18T01:33:51;14.70;;;5.97;;
32639;SDS011;19049;52.524;11.468;2022-12-18T01:36:19;15.82;;;6.40;;
32639;SDS011;19049;52.524;11.468;2022-12-18T01:38:45;13.93;;;6.43;;
32639;SDS011;19049;52.524;11.468;2022-12-18T01:41:11;15.07;;;6.35;;
32639;SDS011;19049;52.524;11.468;2022-12-18T01:43:41;14.20;;;5.17;;
32639;SDS011;19049;52.524;11.468;2022-12-18T01:46:09;12.15;;;5.00;;
32639;SDS011;19049;52.524;11.468;2022-12-18T01:48:35;13.85;;;6.25;;
32639;SDS011;19049;52.524;11.468;2022-12-18T01:51:01;13.48;;;5.97;;
32639;SDS011;19049;52.524;11.468;2022-12-18T01:53:27;15.77;;;6.00;;
32639;SDS011;19049;52.524;11.468;2022-12-18T01:55:55;13.10;;;5.40;;
32639;SDS011;19049;52.524;11.468;2022-12-18T01:58:24;14.18;;;4.90;;
32639;SDS011;19049;52.524;11.468;2022-12-18T02:00:57;12.98;;;5.65;;
32639;SDS011;19049;52.524;11.468;2022-12-18T02:03:22;13.70;;;5.53;;
32639;SDS011;19049;52.524;11.468;2022-12-18T02:06:05;15.00;;;6.13;;
32639;SDS011;19049;52.524;11.468;2022-12-18T02:11:22;14.20;;;5.68;;
32639;SDS011;19049;52.524;11.468;2022-12-18T02:17:42;12.50;;;5.03;;
32639;SDS011;19049;52.524;11.468;2022-12-18T02:19:47;14.85;;;6.35;;
32639;SDS011;19049;52.524;11.468;2022-12-18T02:27:36;17.80;;;6.47;;
32639;SDS011;19049;52.524;11.468;2022-12-18T02:30:03;13.35;;;5.47;;
32639;SDS011;19049;52.524;11.468;2022-12-18T02:32:31;15.07;;;6.53;;
32639;SDS011;19049;52.524;11.468;2022-12-18T02:35:16;12.68;;;5.03;;
32639;SDS011;19049;52.524;11.468;2022-12-18T02:37:49;14.55;;;5.25;;
32639;SDS011;19049;52.524;11.468;2022-12-18T02:40:19;18.77;;;7.28;;
32639;SDS011;19049;52.524;11.468;2022-12-18T02:42:48;19.27;;;7.38;;
32639;SDS011;19049;52.524;11.468;2022-12-18T02:45:14;16.17;;;7.30;;
32639;SDS011;19049;52.524;11.468;2022-12-18T02:47:40;16.90;;;6.40;;
32639;SDS011;19049;52.524;11.468;2022-12-18T02:56:05;14.38;;;6.18;;
32639;SDS011;19049;52.524;11.468;2022-12-18T02:58:47;15.32;;;5.95;;
32639;SDS011;19049;52.524;11.468;2022-12-18T03:04:11;16.80;;;6.10;;
32639;SDS011;19049;52.524;11.468;2022-12-18T03:06:47;14.63;;;6.07;;
32639;SDS011;19049;52.524;11.468;2022-12-18T03:09:22;15.10;;;5.15;;
32639;SDS011;19049;52.524;11.468;2022-12-18T03:11:55;18.02;;;6.82;;
32639;SDS011;19049;52.524;11.468;2022-12-18T03:14:45;15.73;;;6.45;;
32639;SDS011;19049;52.524;11.468;2022-12-18T03:17:25;15.02;;;5.63;;
32639;SDS011;19049;52.524;11.468;2022-12-18T03:19:53;16.42;;;6.07;;
32639;SDS011;19049;52.524;11.468;2022-12-18T03:22:23;16.98;;;6.90;;
32639;SDS011;19049;52.524;11.468;2022-12-18T03:24:52;16.85;;;5.72;;
32639;SDS011;19049;52.524;11.468;2022-12-18T03:27:21;15.55;;;5.03;;
32639;SDS011;19049;52.524;11.468;2022-12-18T03:29:51;14.02;;;6.28;;
32639;SDS011;19049;52.524;11.468;2022-12-18T03:35:14;15.82;;;5.97;;
32639;SDS011;19049;52.524;11.468;2022-12-18T03:37:46;11.82;;;5.07;;
32639;SDS011;19049;52.524;11.468;2022-12-18T03:40:11;14.70;;;6.10;;
32639;SDS011;19049;52.524;11.468;2022-12-18T03:42:45;16.53;;;6.20;;
32639;SDS011;19049;52.524;11.468;2022-12-18T03:50:56;15.45;;;5.78;;
32639;SDS011;19049;52.524;11.468;2022-12-18T03:53:38;18.90;;;6.45;;
32639;SDS011;19049;52.524;11.468;2022-12-18T03:56:25;14.68;;;6.63;;
32639;SDS011;19049;52.524;11.468;2022-12-18T03:58:54;15.57;;;6.15;;
32639;SDS011;19049;52.524;11.468;2022-12-18T04:01:23;15.27;;;5.50;;
32639;SDS011;19049;52.524;11.468;2022-12-18T04:03:54;16.60;;;6.47;;
32639;SDS011;19049;52.524;11.468;2022-12-18T04:06:21;18.90;;;7.32;;
32639;SDS011;19049;52.524;11.468;2022-12-18T04:08:48;17.10;;;6.35;;
32639;SDS011;19049;52.524;11.468;2022-12-18T04:11:14;17.47;;;6.67;;
32639;SDS011;19049;52.524;11.468;2022-12-18T04:13:41;19.73;;;7.22;;
32639;SDS011;19049;52.524;11.468;2022-12-18T04:16:07;15.02;;;6.55;;
32639;SDS011;19049;52.524;11.468;2022-12-18T04:18:34;15.52;;;5.72;;
32639;SDS011;19049;52.524;11.468;2022-12-18T04:21:01;19.25;;;6.25;;
32639;SDS011;19049;52.524;11.468;2022-12-18T04:23:27;22.23;;;6.90;;
32639;SDS011;19049;52.524;11.468;2022-12-18T04:25:53;18.23;;;6.90;;
32639;SDS011;19049;52.524;11.468;2022-12-18T04:28:19;18.53;;;7.13;;
32639;SDS011;19049;52.524;11.468;2022-12-18T04:30:45;21.83;;;8.35;;
32639;SDS011;19049;52.524;11.468;2022-12-18T04:33:11;20.77;;;8.03;;
32639;SDS011;19049;52.524;11.468;2022-12-18T04:35:38;17.98;;;7.35;;
32639;SDS011;19049;52.524;11.468;2022-12-18T04:38:05;20.05;;;6.43;;
32639;SDS011;19049;52.524;11.468;2022-12-18T04:40:33;23.55;;;7.60;;
32639;SDS011;19049;52.524;11.468;2022-12-18T04:43:17;19.03;;;7.13;;
32639;SDS011;19049;52.524;11.468;2022-12-18T04:45:43;13.85;;;5.55;;
32639;SDS011;19049;52.524;11.468;2022-12-18T04:48:08;13.60;;;5.73;;
32639;SDS011;19049;52.524;11.468;2022-12-18T04:50:34;15.53;;;5.87;;
32639;SDS011;19049;52.524;11.468;2022-12-18T04:53:00;17.97;;;6.37;;
32639;SDS011;19049;52.524;11.468;2022-12-18T04:55:26;18.50;;;7.23;;
32639;SDS011;19049;52.524;11.468;2022-12-18T04:57:54;19.73;;;7.20;;
32639;SDS011;19049;52.524;11.468;2022-12-18T05:00:20;20.52;;;7.25;;
32639;SDS011;19049;52.524;11.468;2022-12-18T05:02:46;20.95;;;7.78;;
32639;SDS011;19049;52.524;11.468;2022-12-18T05:05:12;23.20;;;8.47;;
32639;SDS011;19049;52.524;11.468;2022-12-18T05:07:37;15.83;;;6.73;;
32639;SDS011;19049;52.524;11.468;2022-12-18T05:10:03;25.07;;;7.87;;
32639;SDS011;19049;52.524;11.468;2022-12-18T05:12:30;17.83;;;6.68;;
32639;SDS011;19049;52.524;11.468;2022-12-18T05:14:56;21.02;;;7.93;;
32639;SDS011;19049;52.524;11.468;2022-12-18T05:17:22;18.20;;;6.50;;
32639;SDS011;19049;52.524;11.468;2022-12-18T05:19:47;20.80;;;7.90;;
32639;SDS011;19049;52.524;11.468;2022-12-18T05:22:13;21.60;;;7.80;;
32639;SDS011;19049;52.524;11.468;2022-12-18T05:24:39;28.50;;;8.83;;
32639;SDS011;19049;52.524;11.468;2022-12-18T05:27:04;19.67;;;8.40;;
32639;SDS011;19049;52.524;11.468;2022-12-18T05:29:30;25.00;;;9.97;;
32639;SDS011;19049;52.524;11.468;2022-12-18T05:31:56;30.67;;;9.63;;
32639;SDS011;19049;52.524;11.468;2022-12-18T05:34:21;26.23;;;9.20;;
32639;SDS011;19049;52.524;11.468;2022-12-18T05:36:47;27.27;;;11.37;;
32639;SDS011;19049;52.524;11.468;2022-12-18T05:39:12;27.77;;;9.80;;
32639;SDS011;19049;52.524;11.468;2022-12-18T05:41:38;29.00;;;10.70;;
32639;SDS011;19049;52.524;11.468;2022-12-18T05:44:04;28.07;;;10.27;;
32639;SDS011;19049;52.524;11.468;2022-12-18T05:46:30;26.70;;;10.50;;
32639;SDS011;19049;52.524;11.468;2022-12-18T05:48:58;22.90;;;8.43;;
32639;SDS011;19049;52.524;11.468;2022-12-18T05:51:25;29.23;;;10.00;;
32639;SDS011;19049;52.524;11.468;2022-12-18T05:53:50;26.97;;;8.20;;
32639;SDS011;19049;52.524;11.468;2022-12-18T05:56:18;23.20;;;8.67;;
32639;SDS011;19049;52.524;11.468;2022-12-18T05:58:45;24.48;;;8.85;;
32639;SDS011;19049;52.524;11.468;2022-12-18T06:01:13;22.20;;;7.97;;
32639;SDS011;19049;52.524;11.468;2022-12-18T06:03:41;24.20;;;9.45;;
32639;SDS011;19049;52.524;11.468;2022-12-18T06:06:23;30.63;;;9.63;;
32639;SDS011;19049;52.524;11.468;2022-12-18T06:08:50;23.42;;;9.10;;
32639;SDS011;19049;52.524;11.468;2022-12-18T06:11:18;29.00;;;9.40;;
32639;SDS011;19049;52.524;11.468;2022-12-18T06:13:46;26.95;;;10.15;;
32639;SDS011;19049;52.524;11.468;2022-12-18T06:16:14;27.95;;;10.77;;
32639;SDS011;19049;52.524;11.468;2022-12-18T06:18:40;26.03;;;9.97;;
32639;SDS011;19049;52.524;11.468;2022-12-18T06:21:06;31.87;;;12.93;;
32639;SDS011;19049;52.524;11.468;2022-12-18T06:23:31;29.00;;;11.40;;
32639;SDS011;19049;52.524;11.468;2022-12-18T06:25:57;22.47;;;9.73;;
32639;SDS011;19049;52.524;11.468;2022-12-18T06:28:23;26.23;;;9.55;;
32639;SDS011;19049;52.524;11.468;2022-12-18T06:30:49;30.47;;;11.70;;
32639;SDS011;19049;52.524;11.468;2022-12-18T06:33:15;29.70;;;10.73;;
32639;SDS011;19049;52.524;11.468;2022-12-18T06:35:41;30.25;;;11.32;;
32639;SDS011;19049;52.524;11.468;2022-12-18T06:38:07;33.77;;;12.07;;
32639;SDS011;19049;52.524;11.468;2022-12-18T06:40:33;26.10;;;10.10;;
32639;SDS011;19049;52.524;11.468;2022-12-18T06:42:59;28.87;;;10.23;;
32639;SDS011;19049;52.524;11.468;2022-12-18T06:45:24;28.47;;;11.20;;
32639;SDS011;19049;52.524;11.468;2022-12-18T06:47:50;35.97;;;13.03;;
32639;SDS011;19049;52.524;11.468;2022-12-18T06:50:16;38.35;;;13.73;;
32639;SDS011;19049;52.524;11.468;2022-12-18T06:52:44;28.65;;;12.35;;
32639;SDS011;19049;52.524;11.468;2022-12-18T06:55:10;28.23;;;10.83;;
32639;SDS011;19049;52.524;11.468;2022-12-18T06:57:36;29.00;;;10.27;;
32639;SDS011;19049;52.524;11.468;2022-12-18T07:00:04;24.90;;;9.48;;
32639;SDS011;19049;52.524;11.468;2022-12-18T07:02:31;30.85;;;12.68;;
32639;SDS011;19049;52.524;11.468;2022-12-18T07:04:57;30.67;;;11.80;;
32639;SDS011;19049;52.524;11.468;2022-12-18T07:07:25;37.65;;;12.63;;
32639;SDS011;19049;52.524;11.468;2022-12-18T07:09:50;30.20;;;11.93;;
32639;SDS011;19049;52.524;11.468;2022-12-18T07:12:16;26.57;;;9.73;;
32639;SDS011;19049;52.524;11.468;2022-12-18T07:14:43;27.67;;;10.90;;
32639;SDS011;19049;52.524;11.468;2022-12-18T07:17:09;31.03;;;11.33;;
32639;SDS011;19049;52.524;11.468;2022-12-18T07:19:34;29.17;;;11.50;;
32639;SDS011;19049;52.524;11.468;2022-12-18T07:22:00;31.70;;;10.90;;
32639;SDS011;19049;52.524;11.468;2022-12-18T07:24:26;26.10;;;10.43;;
32639;SDS011;19049;52.524;11.468;2022-12-18T07:26:51;29.73;;;11.00;;
32639;SDS011;19049;52.524;11.468;2022-12-18T07:29:17;26.40;;;9.93;;
32639;SDS011;19049;52.524;11.468;2022-12-18T07:31:43;32.50;;;11.87;;
32639;SDS011;19049;52.524;11.468;2022-12-18T07:34:12;26.50;;;10.43;;
32639;SDS011;19049;52.524;11.468;2022-12-18T07:36:39;43.45;;;16.38;;
32639;SDS011;19049;52.524;11.468;2022-12-18T07:39:04;28.70;;;12.13;;
32639;SDS011;19049;52.524;11.468;2022-12-18T07:41:30;36.70;;;14.20;;
32639;SDS011;19049;52.524;11.468;2022-12-18T07:43:56;30.80;;;12.43;;
32639;SDS011;19049;52.524;11.468;2022-12-18T07:46:26;43.65;;;14.27;;
32639;SDS011;19049;52.524;11.468;2022-12-18T07:48:51;27.38;;;12.02;;
32639;SDS011;19049;52.524;11.468;2022-12-18T07:51:17;32.20;;;13.23;;
32639;SDS011;19049;52.524;11.468;2022-12-18T07:53:43;38.53;;;14.30;;
32639;SDS011;19049;52.524;11.468;2022-12-18T07:56:12;40.77;;;15.87;;
32639;SDS011;19049;52.524;11.468;2022-12-18T07:58:38;34.60;;;13.48;;
32639;SDS011;19049;52.524;11.468;2022-12-18T08:01:08;34.03;;;14.33;;
32639;SDS011;19049;52.524;11.468;2022-12-18T08:03:35;32.33;;;12.52;;
32639;SDS011;19049;52.524;11.468;2022-12-18T08:06:03;30.77;;;13.07;;
32639;SDS011;19049;52.524;11.468;2022-12-18T08:08:35;30.13;;;11.60;;
32639;SDS011;19049;52.524;11.468;2022-12-18T08:11:01;34.00;;;13.45;;
32639;SDS011;19049;52.524;11.468;2022-12-18T08:13:27;24.57;;;10.17;;
32639;SDS011;19049;52.524;11.468;2022-12-18T08:16:00;27.05;;;12.05;;
32639;SDS011;19049;52.524;11.468;2022-12-18T08:18:28;26.25;;;11.07;;
32639;SDS011;19049;52.524;11.468;2022-12-18T08:20:56;22.17;;;8.90;;
32639;SDS011;19049;52.524;11.468;2022-12-18T08:23:22;22.87;;;9.77;;
32639;SDS011;19049;52.524;11.468;2022-12-18T08:25:48;23.80;;;10.27;;
32639;SDS011;19049;52.524;11.468;2022-12-18T08:28:14;24.95;;;9.57;;
32639;SDS011;19049;52.524;11.468;2022-12-18T08:30:41;26.13;;;11.32;;
32639;SDS011;19049;52.524;11.468;2022-12-18T08:33:09;29.50;;;11.80;;
32639;SDS011;19049;52.524;11.468;2022-12-18T08:35:35;27.87;;;12.80;;
32639;SDS011;19049;52.524;11.468;2022-12-18T08:38:01;29.40;;;11.40;;
32639;SDS011;19049;52.524;11.468;2022-12-18T08:40:28;34.38;;;14.77;;
32639;SDS011;19049;52.524;11.468;2022-12-18T08:42:54;28.65;;;12.60;;
32639;SDS011;19049;52.524;11.468;2022-12-18T08:45:52;26.10;;;11.55;;
32639;SDS011;19049;52.524;11.468;2022-12-18T08:48:18;23.15;;;10.35;;
32639;SDS011;19049;52.524;11.468;2022-12-18T08:50:43;27.33;;;10.93;;
32639;SDS011;19049;52.524;11.468;2022-12-18T08:53:18;23.25;;;9.65;;
32639;SDS011;19049;52.524;11.468;2022-12-18T08:55:43;21.20;;;9.90;;
32639;SDS011;19049;52.524;11.468;2022-12-18T08:58:09;23.50;;;10.93;;
32639;SDS011;19049;52.524;11.468;2022-12-18T09:00:35;20.00;;;9.40;;
32639;SDS011;19049;52.524;11.468;2022-12-18T09:03:00;25.63;;;11.37;;
32639;SDS011;19049;52.524;11.468;2022-12-18T09:05:26;23.88;;;10.20;;
32639;SDS011;19049;52.524;11.468;2022-12-18T09:07:52;23.80;;;11.40;;
32639;SDS011;19049;52.524;11.468;2022-12-18T09:10:18;24.80;;;11.73;;
32639;SDS011;19049;52.524;11.468;2022-12-18T09:12:43;22.97;;;10.97;;
32639;SDS011;19049;52.524;11.468;2022-12-18T09:15:09;25.57;;;12.33;;
32639;SDS011;19049;52.524;11.468;2022-12-18T09:17:35;24.93;;;12.93;;
32639;SDS011;19049;52.524;11.468;2022-12-18T09:20:00;28.10;;;14.27;;
32639;SDS011;19049;52.524;11.468;2022-12-18T09:22:26;30.93;;;12.97;;
32639;SDS011;19049;52.524;11.468;2022-12-18T09:24:54;31.30;;;14.27;;
32639;SDS011;19049;52.524;11.468;2022-12-18T09:27:20;27.57;;;12.53;;
32639;SDS011;19049;52.524;11.468;2022-12-18T09:29:45;27.03;;;12.63;;
32639;SDS011;19049;52.524;11.468;2022-12-18T09:32:11;25.67;;;13.03;;
32639;SDS011;19049;52.524;11.468;2022-12-18T09:34:37;30.67;;;14.30;;
32639;SDS011;19049;52.524;11.468;2022-12-18T09:37:02;33.93;;;15.57;;
32639;SDS011;19049;52.524;11.468;2022-12-18T09:39:28;31.60;;;14.27;;
32639;SDS011;19049;52.524;11.468;2022-12-18T09:41:57;34.77;;;15.80;;
32639;SDS011;19049;52.524;11.468;2022-12-18T09:44:34;32.42;;;15.95;;
32639;SDS011;19049;52.524;11.468;2022-12-18T09:49:47;32.53;;;15.60;;
32639;SDS011;19049;52.524;11.468;2022-12-18T09:54:59;33.10;;;15.23;;
32639;SDS011;19049;52.524;11.468;2022-12-18T09:57:35;33.95;;;16.95;;
32639;SDS011;19049;52.524;11.468;2022-12-18T10:00:14;28.92;;;14.27;;
32639;SDS011;19049;52.524;11.468;2022-12-18T10:02:43;27.90;;;13.85;;
32639;SDS011;19049;52.524;11.468;2022-12-18T10:05:11;31.52;;;14.88;;
32639;SDS011;19049;52.524;11.468;2022-12-18T10:10:38;36.85;;;15.95;;
32639;SDS011;19049;52.524;11.468;2022-12-18T10:16:16;27.40;;;13.90;;
32639;SDS011;19049;52.524;11.468;2022-12-18T10:21:27;38.10;;;17.55;;
32639;SDS011;19049;52.524;11.468;2022-12-18T10:24:12;34.22;;;16.88;;
32639;SDS011;19049;52.524;11.468;2022-12-18T10:26:51;37.95;;;15.48;;
32639;SDS011;19049;52.524;11.468;2022-12-18T10:29:21;36.78;;;15.77;;
32639;SDS011;19049;52.524;11.468;2022-12-18T10:31:47;31.02;;;15.50;;
32639;SDS011;19049;52.524;11.468;2022-12-18T10:34:13;27.97;;;13.97;;
32639;SDS011;19049;52.524;11.468;2022-12-18T10:36:38;22.87;;;11.60;;
32639;SDS011;19049;52.524;11.468;2022-12-18T10:39:21;26.20;;;13.50;;
32639;SDS011;19049;52.524;11.468;2022-12-18T10:41:49;26.88;;;15.30;;
32639;SDS011;19049;52.524;11.468;2022-12-18T10:46:50;28.38;;;14.32;;
32639;SDS011;19049;52.524;11.468;2022-12-18T10:49:31;27.80;;;15.65;;
32639;SDS011;19049;52.524;11.468;2022-12-18T10:52:05;25.88;;;13.60;;
32639;SDS011;19049;52.524;11.468;2022-12-18T10:54:39;24.80;;;14.43;;
32639;SDS011;19049;52.524;11.468;2022-12-18T10:57:20;20.67;;;12.37;;
32639;SDS011;19049;52.524;11.468;2022-12-18T11:00:00;19.23;;;10.03;;
32639;SDS011;19049;52.524;11.468;2022-12-18T11:02:45;25.15;;;13.48;;
32639;SDS011;19049;52.524;11.468;2022-12-18T11:07:56;20.90;;;11.53;;
32639;SDS011;19049;52.524;11.468;2022-12-18T11:10:41;25.23;;;12.07;;
32639;SDS011;19049;52.524;11.468;2022-12-18T11:13:21;23.87;;;13.70;;
32639;SDS011;19049;52.524;11.468;2022-12-18T11:15:49;23.67;;;12.97;;
32639;SDS011;19049;52.524;11.468;2022-12-18T11:18:20;26.17;;;13.37;;
32639;SDS011;19049;52.524;11.468;2022-12-18T11:20:53;23.77;;;12.73;;
32639;SDS011;19049;52.524;11.468;2022-12-18T11:23:24;21.37;;;12.27;;
32639;SDS011;19049;52.524;11.468;2022-12-18T11:25:56;25.57;;;14.53;;
32639;SDS011;19049;52.524;11.468;2022-12-18T11:28:40;23.43;;;13.30;;
32639;SDS011;19049;52.524;11.468;2022-12-18T11:31:26;25.40;;;12.93;;
32639;SDS011;19049;52.524;11.468;2022-12-18T11:36:44;24.33;;;13.57;;
32639;SDS011;19049;52.524;11.468;2022-12-18T11:39:21;22.83;;;12.93;;
32639;SDS011;19049;52.524;11.468;2022-12-18T11:41:53;21.27;;;12.40;;
32639;SDS011;19049;52.524;11.468;2022-12-18T11:44:46;23.40;;;13.00;;
32639;SDS011;19049;52.524;11.468;2022-12-18T11:47:15;18.07;;;10.83;;
32639;SDS011;19049;52.524;11.468;2022-12-18T11:49:52;17.87;;;10.93;;
32639;SDS011;19049;52.524;11.468;2022-12-18T11:54:46;24.13;;;12.03;;
32639;SDS011;19049;52.524;11.468;2022-12-18T11:57:18;20.37;;;11.20;;
32639;SDS011;19049;52.524;11.468;2022-12-18T12:02:50;17.67;;;10.90;;
32639;SDS011;19049;52.524;11.468;2022-12-18T12:13:43;21.17;;;11.90;;
32639;SDS011;19049;52.524;11.468;2022-12-18T12:21:56;21.52;;;12.63;;
32639;SDS011;19049;52.524;11.468;2022-12-18T12:30:30;19.43;;;10.97;;
32639;SDS011;19049;52.524;11.468;2022-12-18T12:33:43;17.67;;;10.77;;
32639;SDS011;19049;52.524;11.468;2022-12-18T12:39:15;17.43;;;11.40;;
32639;SDS011;19049;52.524;11.468;2022-12-18T12:41:45;16.47;;;10.63;;
32639;SDS011;19049;52.524;11.468;2022-12-18T12:44:32;18.53;;;10.60;;
32639;SDS011;19049;52.524;11.468;2022-12-18T12:47:06;18.20;;;11.63;;
32639;SDS011;19049;52.524;11.468;2022-12-18T12:49:56;17.73;;;10.70;;
32639;SDS011;19049;52.524;11.468;2022-12-18T12:52:46;19.70;;;11.57;;
32639;SDS011;19049;52.524;11.468;2022-12-18T12:55:21;18.37;;;11.27;;
32639;SDS011;19049;52.524;11.468;2022-12-18T12:58:05;17.87;;;10.43;;
32639;SDS011;19049;52.524;11.468;2022-12-18T13:06:09;24.93;;;13.23;;
32639;SDS011;19049;52.524;11.468;2022-12-18T13:08:59;18.40;;;11.20;;
32639;SDS011;19049;52.524;11.468;2022-12-18T13:14:38;19.07;;;11.23;;
32639;SDS011;19049;52.524;11.468;2022-12-18T13:20:03;19.50;;;11.27;;
32639;SDS011;19049;52.524;11.468;2022-12-18T13:25:26;19.80;;;11.37;;
32639;SDS011;19049;52.524;11.468;2022-12-18T13:28:11;17.60;;;11.23;;
32639;SDS011;19049;52.524;11.468;2022-12-18T13:30:46;19.57;;;11.43;;
32639;SDS011;19049;52.524;11.468;2022-12-18T13:40:59;17.00;;;9.70;;
32639;SDS011;19049;52.524;11.468;2022-12-18T13:43:29;14.77;;;9.03;;
32639;SDS011;19049;52.524;11.468;2022-12-18T13:46:21;17.17;;;10.13;;
32639;SDS011;19049;52.524;11.468;2022-12-18T13:51:23;15.17;;;9.67;;
32639;SDS011;19049;52.524;11.468;2022-12-18T13:56:42;17.90;;;10.68;;
32639;SDS011;19049;52.524;11.468;2022-12-18T13:59:11;17.55;;;9.93;;
32639;SDS011;19049;52.524;11.468;2022-12-18T14:01:43;22.80;;;11.88;;
32639;SDS011;19049;52.524;11.468;2022-12-18T14:04:26;18.10;;;9.98;;
32639;SDS011;19049;52.524;11.468;2022-12-18T14:06:54;18.95;;;9.80;;
32639;SDS011;19049;52.524;11.468;2022-12-18T14:09:29;22.85;;;11.30;;
32639;SDS011;19049;52.524;11.468;2022-12-18T14:11:56;17.83;;;10.07;;
32639;SDS011;19049;52.524;11.468;2022-12-18T14:14:42;20.10;;;9.98;;
32639;SDS011;19049;52.524;11.468;2022-12-18T14:17:10;16.65;;;9.68;;
32639;SDS011;19049;52.524;11.468;2022-12-18T14:19:37;18.95;;;10.77;;
32639;SDS011;19049;52.524;11.468;2022-12-18T14:22:24;17.83;;;9.80;;
32639;SDS011;19049;52.524;11.468;2022-12-18T14:28:31;14.38;;;8.25;;
32639;SDS011;19049;52.524;11.468;2022-12-18T14:30:38;17.63;;;9.07;;
32639;SDS011;19049;52.524;11.468;2022-12-18T14:35:39;16.70;;;9.05;;
32639;SDS011;19049;52.524;11.468;2022-12-18T14:40:47;19.42;;;10.10;;
32639;SDS011;19049;52.524;11.468;2022-12-18T14:43:16;14.18;;;8.05;;
32639;SDS011;19049;52.524;11.468;2022-12-18T14:45:42;14.73;;;7.30;;
32639;SDS011;19049;52.524;11.468;2022-12-18T14:50:54;16.42;;;8.38;;
32639;SDS011;19049;52.524;11.468;2022-12-18T14:56:17;14.00;;;7.38;;
32639;SDS011;19049;52.524;11.468;2022-12-18T14:58:56;16.65;;;8.10;;
32639;SDS011;19049;52.524;11.468;2022-12-18T15:01:33;13.57;;;6.55;;
32639;SDS011;19049;52.524;11.468;2022-12-18T15:04:00;11.38;;;6.55;;
32639;SDS011;19049;52.524;11.468;2022-12-18T15:08:52;17.30;;;7.03;;
32639;SDS011;19049;52.524;11.468;2022-12-18T15:11:25;16.17;;;7.03;;
32639;SDS011;19049;52.524;11.468;2022-12-18T15:13:54;14.02;;;7.45;;
32639;SDS011;19049;52.524;11.468;2022-12-18T15:16:20;21.57;;;10.93;;
32639;SDS011;19049;52.524;11.468;2022-12-18T15:18:46;19.73;;;8.93;;
32639;SDS011;19049;52.524;11.468;2022-12-18T15:21:17;16.60;;;7.63;;
32639;SDS011;19049;52.524;11.468;2022-12-18T15:26:11;15.27;;;7.67;;
32639;SDS011;19049;52.524;11.468;2022-12-18T15:31:28;19.23;;;8.38;;
32639;SDS011;19049;52.524;11.468;2022-12-18T15:36:22;25.93;;;11.93;;
32639;SDS011;19049;52.524;11.468;2022-12-18T15:38:49;17.33;;;8.30;;
32639;SDS011;19049;52.524;11.468;2022-12-18T15:41:16;19.55;;;10.23;;
32639;SDS011;19049;52.524;11.468;2022-12-18T15:43:46;18.67;;;8.98;;
32639;SDS011;19049;52.524;11.468;2022-12-18T15:46:18;15.70;;;8.85;;
32639;SDS011;19049;52.524;11.468;2022-12-18T15:48:45;18.52;;;8.75;;
32639;SDS011;19049;52.524;11.468;2022-12-18T15:53:58;24.45;;;10.25;;
32639;SDS011;19049;52.524;11.468;2022-12-18T15:56:26;26.02;;;12.45;;
32639;SDS011;19049;52.524;11.468;2022-12-18T15:59:11;22.92;;;11.07;;
32639;SDS011;19049;52.524;11.468;2022-12-18T16:01:41;24.20;;;10.95;;
32639;SDS011;19049;52.524;11.468;2022-12-18T16:04:10;28.92;;;11.98;;
32639;SDS011;19049;52.524;11.468;2022-12-18T16:06:38;21.42;;;10.50;;
32639;SDS011;19049;52.524;11.468;2022-12-18T16:09:06;27.40;;;12.65;;
32639;SDS011;19049;52.524;11.468;2022-12-18T16:11:35;24.08;;;11.93;;
32639;SDS011;19049;52.524;11.468;2022-12-18T16:14:16;22.90;;;11.55;;
32639;SDS011;19049;52.524;11.468;2022-12-18T16:16:42;23.67;;;11.75;;
32639;SDS011;19049;52.524;11.468;2022-12-18T16:19:08;23.35;;;10.50;;
32639;SDS011;19049;52.524;11.468;2022-12-18T16:21:34;25.43;;;11.57;;
32639;SDS011;19049;52.524;11.468;2022-12-18T16:24:00;32.77;;;13.77;;
32639;SDS011;19049;52.524;11.468;2022-12-18T16:26:28;28.52;;;12.80;;
32639;SDS011;19049;52.524;11.468;2022-12-18T16:28:56;31.85;;;13.93;;
32639;SDS011;19049;52.524;11.468;2022-12-18T16:31:22;28.80;;;13.73;;
32639;SDS011;19049;52.524;11.468;2022-12-18T16:33:48;32.00;;;14.73;;
32639;SDS011;19049;52.524;11.468;2022-12-18T16:36:13;28.57;;;14.40;;
32639;SDS011;19049;52.524;11.468;2022-12-18T16:38:39;30.83;;;15.33;;
32639;SDS011;19049;52.524;11.468;2022-12-18T16:41:14;30.53;;;14.13;;
32639;SDS011;19049;52.524;11.468;2022-12-18T16:43:56;29.60;;;13.75;;